地図

経路データ

SID SEASON NUMBER BASIN SUBBASIN NAME ISO_TIME NATURE LAT LON WMO_WIND WMO_PRES WMO_AGENCY TRACK_TYPE DIST2LAND LANDFALL IFLAG USA_AGENCY USA_ATCF_ID USA_LAT USA_LON USA_RECORD USA_STATUS USA_WIND USA_PRES USA_SSHS USA_R34_NE USA_R34_SE USA_R34_SW USA_R34_NW USA_R50_NE USA_R50_SE USA_R50_SW USA_R50_NW USA_R64_NE USA_R64_SE USA_R64_SW USA_R64_NW USA_POCI USA_ROCI USA_RMW USA_EYE TOKYO_LAT TOKYO_LON TOKYO_GRADE TOKYO_WIND TOKYO_PRES TOKYO_R50_DIR TOKYO_R50_LONG TOKYO_R50_SHORT TOKYO_R30_DIR TOKYO_R30_LONG TOKYO_R30_SHORT TOKYO_LAND CMA_LAT CMA_LON CMA_CAT CMA_WIND CMA_PRES HKO_LAT HKO_LON HKO_CAT HKO_WIND HKO_PRES NEWDELHI_LAT NEWDELHI_LON NEWDELHI_GRADE NEWDELHI_WIND NEWDELHI_PRES NEWDELHI_CI NEWDELHI_DP NEWDELHI_POCI REUNION_LAT REUNION_LON REUNION_TYPE REUNION_WIND REUNION_PRES REUNION_TNUM REUNION_CI REUNION_RMW REUNION_R34_NE REUNION_R34_SE REUNION_R34_SW REUNION_R34_NW REUNION_R50_NE REUNION_R50_SE REUNION_R50_SW REUNION_R50_NW REUNION_R64_NE REUNION_R64_SE REUNION_R64_SW REUNION_R64_NW BOM_LAT BOM_LON BOM_TYPE BOM_WIND BOM_PRES BOM_TNUM BOM_CI BOM_RMW BOM_R34_NE BOM_R34_SE BOM_R34_SW BOM_R34_NW BOM_R50_NE BOM_R50_SE BOM_R50_SW BOM_R50_NW BOM_R64_NE BOM_R64_SE BOM_R64_SW BOM_R64_NW BOM_ROCI BOM_POCI BOM_EYE BOM_POS_METHOD BOM_PRES_METHOD NADI_LAT NADI_LON NADI_CAT NADI_WIND NADI_PRES WELLINGTON_LAT WELLINGTON_LON WELLINGTON_WIND WELLINGTON_PRES DS824_LAT DS824_LON DS824_STAGE DS824_WIND DS824_PRES TD9636_LAT TD9636_LON TD9636_STAGE TD9636_WIND TD9636_PRES TD9635_LAT TD9635_LON TD9635_WIND TD9635_PRES TD9635_ROCI NEUMANN_LAT NEUMANN_LON NEUMANN_CLASS NEUMANN_WIND NEUMANN_PRES MLC_LAT MLC_LON MLC_CLASS MLC_WIND MLC_PRES USA_GUST BOM_GUST BOM_GUST_PER REUNION_GUST REUNION_GUST_PER USA_SEAHGT USA_SEARAD_NE USA_SEARAD_SE USA_SEARAD_SW USA_SEARAD_NW STORM_SPEED STORM_DIR
1921088S12147 1921 17 SP EA NOT_NAMED 1921-03-28 23:00:00 NR -12.0000 147.200 bom main 219 219 ______O_______ -1 -12.0000 147.200 2 278
1921088S12147 1921 17 SP EA NOT_NAMED 1921-03-29 00:00:00 NR -11.9948 147.168 main 219 219 ______P_______ -1 -11.9948 147.168 2 280
1921088S12147 1921 17 SP EA NOT_NAMED 1921-03-29 03:00:00 NR -11.9792 147.074 main 222 222 ______P_______ -1 -11.9792 147.074 2 279
1921088S12147 1921 17 SP EA NOT_NAMED 1921-03-29 06:00:00 NR -11.9639 146.980 main 226 226 ______P_______ -1 -11.9639 146.980 2 279
1921088S12147 1921 17 SP EA NOT_NAMED 1921-03-29 09:00:00 NR -11.9494 146.888 main 219 219 ______P_______ -1 -11.9494 146.888 2 279
1921088S12147 1921 17 SP EA NOT_NAMED 1921-03-29 12:00:00 NR -11.9359 146.798 main 224 224 ______P_______ -1 -11.9359 146.798 2 279
1921088S12147 1921 17 SP EA NOT_NAMED 1921-03-29 15:00:00 NR -11.9237 146.711 main 229 229 ______P_______ -1 -11.9237 146.711 2 278
1921088S12147 1921 17 SP EA NOT_NAMED 1921-03-29 18:00:00 NR -11.9131 146.628 main 234 234 ______P_______ -1 -11.9131 146.628 2 277
1921088S12147 1921 17 SP EA NOT_NAMED 1921-03-29 21:00:00 NR -11.9045 146.550 main 240 240 ______P_______ -1 -11.9045 146.550 2 276
1921088S12147 1921 17 SP EA NOT_NAMED 1921-03-29 23:00:00 NR -11.9000 146.500 bom main 240 240 ______O_______ -1 -11.9000 146.500 1 275
1921088S12147 1921 17 SP EA NOT_NAMED 1921-03-30 00:00:00 NR -11.8982 146.476 main 240 240 ______P_______ -1 -11.8982 146.476 1 274
1921088S12147 1921 17 SP EA NOT_NAMED 1921-03-30 03:00:00 NR -11.8946 146.407 main 246 246 ______P_______ -1 -11.8946 146.407 1 272
1921088S12147 1921 17 SP EA NOT_NAMED 1921-03-30 06:00:00 NR -11.8946 146.339 main 253 253 ______P_______ -1 -11.8946 146.339 1 268
1921088S12147 1921 17 SP EA NOT_NAMED 1921-03-30 09:00:00 NR -11.8989 146.268 main 253 253 ______P_______ -1 -11.8989 146.268 1 264
1921088S12147 1921 17 SP EA NOT_NAMED 1921-03-30 12:00:00 NR -11.9084 146.191 main 259 259 ______P_______ -1 -11.9084 146.191 2 261
1921088S12147 1921 17 SP EA NOT_NAMED 1921-03-30 15:00:00 NR -11.9238 146.104 main 266 266 ______P_______ -1 -11.9238 146.104 2 258
1921088S12147 1921 17 SP EA NOT_NAMED 1921-03-30 18:00:00 NR -11.9460 146.005 main 274 274 ______P_______ -1 -11.9460 146.005 2 256
1921088S12147 1921 17 SP EA NOT_NAMED 1921-03-30 21:00:00 NR -11.9757 145.888 main 279 269 ______P_______ -1 -11.9757 145.888 2 255
1921088S12147 1921 17 SP EA NOT_NAMED 1921-03-30 23:00:00 NR -12.0000 145.800 bom main 269 269 ______O_______ -1 -12.0000 145.800 3 259
1921088S12147 1921 17 SP EA NOT_NAMED 1921-03-31 00:00:00 NR -11.9995 145.762 main 269 248 ______P_______ -1 -11.9995 145.762 2 271
1921088S12147 1921 17 SP EA NOT_NAMED 1921-03-31 03:00:00 NR -11.9977 145.638 main 248 237 ______P_______ -1 -11.9977 145.638 3 270
1921088S12147 1921 17 SP EA NOT_NAMED 1921-03-31 06:00:00 NR -12.0013 145.499 main 237 217 ______P_______ -1 -12.0013 145.499 3 266
1921088S12147 1921 17 SP EA NOT_NAMED 1921-03-31 09:00:00 NR -12.0182 145.340 main 217 203 ______P_______ -1 -12.0182 145.340 3 261
1921088S12147 1921 17 SP EA NOT_NAMED 1921-03-31 12:00:00 NR -12.0560 145.156 main 203 182 ______P_______ -1 -12.0560 145.156 4 255
1921088S12147 1921 17 SP EA NOT_NAMED 1921-03-31 15:00:00 NR -12.1227 144.943 main 172 148 ______P_______ -1 -12.1227 144.943 5 249
1921088S12147 1921 17 SP EA NOT_NAMED 1921-03-31 18:00:00 NR -12.2259 144.697 main 148 110 ______P_______ -1 -12.2259 144.697 6 244
1921088S12147 1921 17 SP EA NOT_NAMED 1921-03-31 21:00:00 NR -12.3733 144.413 main 110 87 ______P_______ -1 -12.3733 144.413 7 241
1921088S12147 1921 17 SP EA NOT_NAMED 1921-03-31 23:00:00 NR -12.5000 144.200 982 bom main 87 73 ______O_______ -1 -12.5000 144.200 982 4 8 238
1921088S12147 1921 17 SP EA NOT_NAMED 1921-04-01 00:00:00 NR -12.5718 144.085 main 73 24 ______P_______ -1 -12.5718 144.085 8 236
1921088S12147 1921 17 SP EA NOT_NAMED 1921-04-01 03:00:00 NR -12.8137 143.722 main 24 10 ______P_______ -1 -12.8137 143.722 9 235
1921088S12147 1921 17 SP EA NOT_NAMED 1921-04-01 04:00:00 NR -12.9000 143.600 bom main 10 0 ______O_______ -1 -12.9000 143.600 7 232
1921088S12147 1921 17 SP EA NOT_NAMED 1921-04-01 06:00:00 NR -13.0309 143.439 main 0 0 ______P_______ -1 -13.0309 143.439 5 227
1921088S12147 1921 17 SP EA NOT_NAMED 1921-04-01 09:00:00 NR -13.2087 143.264 main 0 0 ______P_______ -1 -13.2087 143.264 5 222
1921088S12147 1921 17 SP EA NOT_NAMED 1921-04-01 12:00:00 NR -13.3982 143.099 main 0 0 ______P_______ -1 -13.3982 143.099 6 222
1921088S12147 1921 17 SP EA NOT_NAMED 1921-04-01 15:00:00 NR -13.6375 142.864 main 0 0 ______P_______ -1 -13.6375 142.864 8 227
1921088S12147 1921 17 SP EA NOT_NAMED 1921-04-01 18:00:00 NR -13.9642 142.481 main 0 0 ______P_______ -1 -13.9642 142.481 12 231
1921088S12147 1921 17 SP EA NOT_NAMED 1921-04-01 21:00:00 NR -14.4156 141.869 main 0 0 ______P_______ -1 -14.4156 141.869 16 233
1921088S12147 1921 17 SP EA NOT_NAMED 1921-04-01 22:00:00 NR -14.6000 141.600 bom main 0 0 ______O_______ -1 -14.6000 141.600 20 235
1921088S12147 1921 17 SP EA NOT_NAMED 1921-04-01 23:00:00 NR -14.8000 141.300 bom main 34 34 ______O_______ -1 -14.8000 141.300 20 235
1921088S12147 1921 17 SP EA NOT_NAMED 1921-04-02 00:00:00 NR -14.9828 141.027 main 72 72 ______P_______ -1 -14.9828 141.027 16 235
1921088S12147 1921 17 SP EA NOT_NAMED 1921-04-02 03:00:00 NR -15.4181 140.393 main 118 118 ______P_______ -1 -15.4181 140.393 12 234
1921088S12147 1921 17 SP EA NOT_NAMED 1921-04-02 06:00:00 NR -15.7077 140.002 main 151 138 ______P_______ -1 -15.7077 140.002 7 231
1921088S12147 1921 17 SP EA NOT_NAMED 1921-04-02 09:00:00 NR -15.8813 139.809 main 138 128 ______P_______ -1 -15.8813 139.809 3 221
1921088S12147 1921 17 SP EA NOT_NAMED 1921-04-02 12:00:00 NR -15.9679 139.770 main 128 128 ______P_______ -1 -15.9679 139.770 1 0
1921088S12147 1921 17 SP EA NOT_NAMED 1921-04-02 15:00:00 NR -15.9960 139.838 main 128 128 ______P_______ -1 -15.9960 139.838 2 98
1921088S12147 1921 17 SP EA NOT_NAMED 1921-04-02 18:00:00 NR -15.9938 139.969 main 140 135 ______P_______ -1 -15.9938 139.969 3 89
1921088S12147 1921 17 SP EA NOT_NAMED 1921-04-02 21:00:00 NR -15.9897 140.116 main 135 125 ______P_______ -1 -15.9897 140.116 3 92
1921088S12147 1921 17 SP EA NOT_NAMED 1921-04-02 23:00:00 NR -16.0000 140.200 bom main 125 125 ______O_______ -1 -16.0000 140.200 1 133
1921088S12147 1921 17 SP EA NOT_NAMED 1921-04-03 00:00:00 NR -16.0367 140.167 main 125 122 ______P_______ -1 -16.0367 140.167 3 221
1921088S12147 1921 17 SP EA NOT_NAMED 1921-04-03 03:00:00 NR -16.1409 140.077 main 132 123 ______P_______ -1 -16.1409 140.077 3 217
1921088S12147 1921 17 SP EA NOT_NAMED 1921-04-03 06:00:00 NR -16.2427 140.001 main 123 108 ______P_______ -1 -16.2427 140.001 3 212
1921088S12147 1921 17 SP EA NOT_NAMED 1921-04-03 09:00:00 NR -16.3510 139.938 main 100 93 ______P_______ -1 -16.3510 139.938 3 205
1921088S12147 1921 17 SP EA NOT_NAMED 1921-04-03 12:00:00 NR -16.4745 139.887 main 93 78 ______P_______ -1 -16.4745 139.887 3 198
1921088S12147 1921 17 SP EA NOT_NAMED 1921-04-03 15:00:00 NR -16.6221 139.848 main 78 67 ______P_______ -1 -16.6221 139.848 3 192
1921088S12147 1921 17 SP EA NOT_NAMED 1921-04-03 18:00:00 NR -16.8025 139.821 main 67 54 ______P_______ -1 -16.8025 139.821 4 184
1921088S12147 1921 17 SP EA NOT_NAMED 1921-04-03 21:00:00 NR -17.0245 139.805 main 54 38 ______P_______ -1 -17.0245 139.805 5 182
1921088S12147 1921 17 SP EA NOT_NAMED 1921-04-03 23:00:00 NR -17.2000 139.800 bom main 38 30 ______O_______ -1 -17.2000 139.800 5 186
1921088S12147 1921 17 SP EA NOT_NAMED 1921-04-04 00:00:00 NR -17.2973 139.799 main 30 11 ______P_______ -1 -17.2973 139.799 6 0
1921088S12147 1921 17 SP EA NOT_NAMED 1921-04-04 02:00:00 NR -17.5000 139.800 bom main 11 0 ______O_______ -1 -17.5000 139.800 6 0
1921088S12147 1921 17 SP EA NOT_NAMED 1921-04-04 03:00:00 NR -17.6014 139.803 main 0 0 ______P_______ -1 -17.6014 139.803 6 0
1921088S12147 1921 17 SP EA NOT_NAMED 1921-04-04 06:00:00 NR -17.9003 139.816 main 0 0 ______P_______ -1 -17.9003 139.816 6 176
1921088S12147 1921 17 SP EA NOT_NAMED 1921-04-04 09:00:00 NR -18.1924 139.837 main 0 0 ______P_______ -1 -18.1924 139.837 6 176
1921088S12147 1921 17 SP EA NOT_NAMED 1921-04-04 12:00:00 NR -18.4788 139.865 main 0 0 ______P_______ -1 -18.4788 139.865 6 175
1921088S12147 1921 17 SP EA NOT_NAMED 1921-04-04 15:00:00 NR -18.7607 139.898 main 0 0 ______P_______ -1 -18.7607 139.898 6 173
1921088S12147 1921 17 SP EA NOT_NAMED 1921-04-04 18:00:00 NR -19.0394 139.934 main 0 0 ______P_______ -1 -19.0394 139.934 6 173
1921088S12147 1921 17 SP EA NOT_NAMED 1921-04-04 21:00:00 NR -19.3161 139.973 main 0 0 ______P_______ -1 -19.3161 139.973 6 172
1921088S12147 1921 17 SP EA NOT_NAMED 1921-04-04 23:00:00 NR -19.5000 140.000 bom main 0 ______O_______ -1 -19.5000 140.000 6 172

デジタル台風データ・検索

IBTrACS Databaseについて

本データベースは、米国NOAAが公開する1842年以降の世界の熱帯低気圧のベストトラックデータアーカイブInternational Best Track Archive for Climate Stewardship (IBTrACS)を、ウェブで閲覧しやすい形式に変換したものです。

最終更新日:2021-12-08